Time;durP1;ratioP1;P1;durP2;ratioP2;P2;SDS_P1;SDS_P2;PMS_P1;PMS_P2;Temp;Humidity;BMP_temperature;BMP_pressure;BME280_temperature;BME280_humidity;BME280_pressure;Samples;Min_cycle;Max_cycle;Signal;HPM_P1;HPM_P2
2022/07/11 00:02:36;;;;;;;2.3;1;;;;;;;;;;;;;-79
2022/07/11 00:03:20;;;;;;;;;;;;;;;18.08;55.3457;102523;;;;-78
2022/07/11 00:08:22;;;;;;;;;;;;;;;18.09;55.44727;102525.1;;;;-79
2022/07/11 00:13:23;;;;;;;;;;;;;;;18.09;55.35645;102519.6;;;;-79
2022/07/11 00:18:25;;;;;;;;;;;;;;;18.08;55.41309;102514.5;;;;-79
2022/07/11 00:23:19;;;;;;;;;;;;;;;18.08;55.36816;102515;;;;-82
2022/07/11 00:28:20;;;;;;;;;;;;;;;18.06;55.47949;102509.5;;;;-77
2022/07/11 00:32:38;;;;;;;2.6;1;;;;;;;;;;;;;-79
2022/07/11 00:33:20;;;;;;;;;;;;;;;18.06;55.43262;102504;;;;-79
2022/07/11 00:43:41;;;;;;;;;;;;;;;18.03;55.71387;102502.8;;;;-79
2022/07/11 00:48:40;;;;;;;;;;;;;;;18.02;55.63281;102503.7;;;;-80
2022/07/11 00:53:22;;;;;;;;;;;;;;;18.02;55.49609;102502;;;;-79
2022/07/11 00:58:20;;;;;;;;;;;;;;;18;55.6084;102498.8;;;;-78
2022/07/11 01:02:42;;;;;;;1.7;0.9;;;;;;;;;;;;;-80
2022/07/11 01:03:19;;;;;;;;;;;;;;;18;55.6416;102504.1;;;;-80
2022/07/11 01:08:35;;;;;;;;;;;;;;;18;55.57324;102499.9;;;;-81
2022/07/11 01:13:26;;;;;;;;;;;;;;;17.99;55.5498;102507.8;;;;-81
2022/07/11 01:18:22;;;;;;;;;;;;;;;17.99;55.46973;102508.4;;;;-81
2022/07/11 01:23:22;;;;;;;;;;;;;;;17.98;55.52539;102506.9;;;;-80
2022/07/11 01:28:30;;;;;;;;;;;;;;;17.98;55.58203;102509.1;;;;-81
2022/07/11 01:32:50;;;;;;;2;1;;;;;;;;;;;;;-80
2022/07/11 01:33:19;;;;;;;;;;;;;;;17.96;55.43262;102508.7;;;;-81
2022/07/11 01:38:23;;;;;;;;;;;;;;;17.96;55.46582;102506;;;;-81
2022/07/11 01:43:22;;;;;;;;;;;;;;;17.94;55.57813;102502;;;;-80
2022/07/11 01:48:28;;;;;;;;;;;;;;;17.94;55.41895;102505.5;;;;-80
2022/07/11 01:53:23;;;;;;;;;;;;;;;17.93;55.46289;102499.5;;;;-80
2022/07/11 01:58:31;;;;;;;;;;;;;;;17.92;55.50781;102499.5;;;;-79
2022/07/11 02:02:51;;;;;;;1.9;0.9;;;;;;;;;;;;;-80
2022/07/11 02:03:20;;;;;;;;;;;;;;;17.91;55.57324;102500.1;;;;-80
2022/07/11 02:08:20;;;;;;;;;;;;;;;17.91;55.74316;102501.4;;;;-81
2022/07/11 02:13:21;;;;;;;;;;;;;;;17.9;55.75293;102501.3;;;;-81
2022/07/11 02:18:22;;;;;;;;;;;;;;;17.88;55.78516;102500.2;;;;-81
2022/07/11 02:23:26;;;;;;;;;;;;;;;17.86;55.97559;102495;;;;-81
2022/07/11 02:28:19;;;;;;;;;;;;;;;17.85;55.95117;102487.2;;;;-80
2022/07/11 02:32:52;;;;;;;2.9;0.9;;;;;;;;;;;;;-80
2022/07/11 02:33:21;;;;;;;;;;;;;;;17.85;56.06348;102490.7;;;;-80
2022/07/11 02:38:36;;;;;;;;;;;;;;;17.83;55.94922;102490.7;;;;-80
2022/07/11 02:43:25;;;;;;;;;;;;;;;17.81;56.00293;102489;;;;-79
2022/07/11 02:48:19;;;;;;;;;;;;;;;17.81;56.14941;102492.4;;;;-80
2022/07/11 02:53:21;;;;;;;;;;;;;;;17.79;56.09082;102485.5;;;;-81
2022/07/11 02:57:26;;;;;;;;;;;;;;;18.17;55.71973;102488;;;;-81
2022/07/11 03:02:39;;;;;;;;;;;;;;;17.76;56.20117;102490.3;;;;-81
2022/07/11 03:11:23;;;;;;;;;;;;;;;17.74;56.29883;102492.4;;;;-80
2022/07/11 03:23:01;;;;;;;;;;;;;;;17.95;55.97559;102502.2;;;;-78
2022/07/11 03:26:45;;;;;;;;;;;;;;;17.95;56.14551;102499.8;;;;-78
2022/07/11 03:31:15;;;;;;;;;;;;;;;17.93;56.14258;102506.8;;;;-78
2022/07/11 03:32:57;;;;;;;1.8;0.9;;;;;;;;;;;;;-82
2022/07/11 03:34:09;;;;;;;;;;;;;;;17.67;56.46094;102508.8;;;;-79
2022/07/11 03:39:12;;;;;;;;;;;;;;;17.65;56.5498;102512.5;;;;-79
2022/07/11 03:44:14;;;;;;;;;;;;;;;;;;;;;
2022/07/11 03:54:00;;;;;;;;;;;;;;;17.61;56.81543;102508.9;;;;-79
2022/07/11 04:03:18;;;;;;;;;;;;;;;;;;;;;
2022/07/11 04:08:54;;;;;;;;;;;;;;;17.58;57.10645;102506;;;;-81
2022/07/11 04:13:49;;;;;;;;;;;;;;;17.57;57.2627;102499.8;;;;-79
2022/07/11 04:19:21;;;;;;;;;;;;;;;17.55;57.4082;102501.5;;;;-79
2022/07/11 04:29:07;;;;;;;;;;;;;;;17.56;57.53418;102501.1;;;;-81
2022/07/11 04:33:55;;;;;;;;;;;;;;;17.86;57.11914;102491;;;;-80
2022/07/11 04:38:30;;;;;;;;;;;;;;;17.58;57.41211;102506.6;;;;-80
2022/07/11 04:43:41;;;;;;;;;;;;;;;17.58;57.66113;102505.1;;;;-79
2022/07/11 04:53:39;;;;;;;;;;;;;;;17.62;57.59766;102506.6;;;;-80
2022/07/11 04:58:55;;;;;;;;;;;;;;;17.96;57.38086;102502.9;;;;-78
2022/07/11 05:03:20;;;;;;;;;;;;;;;;;;;;;
2022/07/11 05:04:03;;;;;;;;;;;;;;;17.56;57.63574;102497.7;;;;-80
2022/07/11 05:08:11;;;;;;;;;;;;;;;17.68;57.87793;102522;;;;-80
2022/07/11 05:18:01;;;;;;;;;;;;;;;17.71;58.09668;102525.7;;;;-80
2022/07/11 05:22:29;;;;;;;;;;;;;;;18.01;58.0918;102524.8;;;;-80
2022/07/11 05:24:31;;;;;;;;;;;;;;;18.1;58.04688;102526.5;;;;-78
2022/07/11 05:25:39;;;;;;;;;;;;;;;18.1;58.1377;102523.8;;;;-78
2022/07/11 05:28:55;;;;;;;;;;;;;;;17.78;58.62695;102533.3;;;;-80
2022/07/11 05:33:29;;;;;;;2.2;0.8;;;;;;;;;;;;;-79
2022/07/11 05:34:12;;;;;;;;;;;;;;;17.84;59.25684;102537.3;;;;-80
2022/07/11 05:38:43;;;;;;;;;;;;;;;17.91;58.8584;102543.1;;;;-79
2022/07/11 05:43:39;;;;;;;;;;;;;;;17.99;58.7334;102544.8;;;;-79
2022/07/11 05:48:45;;;;;;;;;;;;;;;18.04;58.7168;102541.9;;;;-79
2022/07/11 05:53:50;;;;;;;;;;;;;;;18.09;58.74707;102534.3;;;;-79
2022/07/11 05:58:35;;;;;;;;;;;;;;;18.13;58.72949;102529.1;;;;-80
2022/07/11 06:03:06;;;;;;;1.4;0.6;;;;;;;;;;;;;-79
2022/07/11 06:03:32;;;;;;;;;;;;;;;18.18;58.95215;102538;;;;-79
2022/07/11 06:13:27;;;;;;;;;;;;;;;18.29;59.0459;102538.7;;;;-81
2022/07/11 06:18:46;;;;;;;;;;;;;;;;;;;;;
2022/07/11 06:23:49;;;;;;;;;;;;;;;18.48;58.87793;102537.8;;;;-79
2022/07/11 06:28:46;;;;;;;;;;;;;;;18.63;58.4209;102531.7;;;;-79
2022/07/11 06:33:28;;;;;;;;;;;;;;;;;;;;;
2022/07/11 06:38:46;;;;;;;;;;;;;;;19.03;58.12207;102532.5;;;;-79
2022/07/11 06:52:58;;;;;;;;;;;;;;;19.29;58.38184;102542;;;;-80
2022/07/11 07:21:04;;;;;;;;;;;;;;;19.94;57.96875;102554;;;;-80
2022/07/11 07:26:11;;;;;;;;;;;;;;;20.42;56.9707;102557.5;;;;-78
2022/07/11 07:30:58;;;;;;;;;;;;;;;20.68;56.18359;102554.3;;;;-78
2022/07/11 07:33:39;;;;;;;0.7;0.3;;;;;;;;;;;;;-79
2022/07/11 07:42:15;;;;;;;;;;;;;;;21.08;56.07422;102560.5;;;;-77
2022/07/11 07:45:59;;;;;;;;;;;;;;;20.72;56.61035;102559.4;;;;-79
2022/07/11 07:51:15;;;;;;;;;;;;;;;20.76;56.55859;102562.5;;;;-80
2022/07/11 08:08:06;;;;;;;;;;;;;;;21.28;56.76074;102571.6;;;;-78
2022/07/11 08:13:07;;;;;;;;;;;;;;;21.61;55.56836;102564.5;;;;-80
2022/07/11 08:53:23;;;;;;;;;;;;;;;22.08;54.11523;102571.5;;;;-80
2022/07/11 09:02:48;;;;;;;;;;;;;;;21.77;54.33008;102568.2;;;;-80
2022/07/11 09:03:41;;;;;;;1.9;0.4;;;;;;;;;;;;;-79
2022/07/11 09:07:54;;;;;;;;;;;;;;;21.83;54.44043;102556.7;;;;-79
2022/07/11 09:12:34;;;;;;;;;;;;;;;21.91;54.34668;102555.1;;;;-80
2022/07/11 09:17:28;;;;;;;;;;;;;;;22.04;54.2832;102550.4;;;;-79
2022/07/11 09:27:25;;;;;;;;;;;;;;;22.46;53.48535;102547.7;;;;-80
2022/07/11 09:33:42;;;;;;;0.8;0.4;;;;;;;;;;;;;-79
2022/07/11 09:37:39;;;;;;;;;;;;;;;22.96;52.65137;102549.1;;;;-78
2022/07/11 09:42:38;;;;;;;;;;;;;;;23.29;52.20703;102553.9;;;;-80
2022/07/11 09:47:40;;;;;;;;;;;;;;;23.94;51.64941;102560;;;;-78
2022/07/11 09:52:46;;;;;;;;;;;;;;;24.53;50.07031;102560.9;;;;-81
2022/07/11 09:58:44;;;;;;;;;;;;;;;25.27;48.35059;102554.6;;;;-82
2022/07/11 10:01:20;;;;;;;;;;;;;;;25.6;47.60059;102558.8;;;;-78
2022/07/11 10:05:39;;;;;;;;;;;;;;;25.43;47.42188;102555.9;;;;-79
2022/07/11 10:13:25;;;;;;;;;;;;;;;25.79;46.70801;102547.1;;;;-79
2022/07/11 10:16:53;;;;;;;;;;;;;;;25.57;47.1123;102551.7;;;;-81
2022/07/11 10:22:01;;;;;;;;;;;;;;;25.58;47.11328;102549.5;;;;-78
2022/07/11 10:27:04;;;;;;;;;;;;;;;25.59;47.06738;102549.8;;;;-80
2022/07/11 10:32:19;;;;;;;;;;;;;;;25.58;47.32129;102550.1;;;;-77
2022/07/11 10:45:20;;;;;;;;;;;;;;;25.61;47.30078;102559.7;;;;-79
2022/07/11 10:50:19;;;;;;;;;;;;;;;25.62;47.26758;102564.7;;;;-80
2022/07/11 10:55:24;;;;;;;;;;;;;;;25.62;47.24414;102571.3;;;;-80
2022/07/11 11:00:10;;;;;;;;;;;;;;;25.64;47.18945;102572.5;;;;-79
2022/07/11 11:03:37;;;;;;;0.7;0.4;;;;;;;;;;;;;-80
2022/07/11 11:05:15;;;;;;;;;;;;;;;25.72;47.19727;102565.1;;;;-80
2022/07/11 11:10:08;;;;;;;;;;;;;;;25.83;47.02344;102560;;;;-80
2022/07/11 11:15:54;;;;;;;;;;;;;;;26.38;46.36328;102562.7;;;;-79
2022/07/11 11:25:39;;;;;;;;;;;;;;;26.43;46.1709;102552.7;;;;-80
2022/07/11 11:30:37;;;;;;;;;;;;;;;26.68;45.79004;102549.7;;;;-79
2022/07/11 11:33:39;;;;;;;1.1;0.6;;;;;;;;;;;;;-80
2022/07/11 11:36:00;;;;;;;;;;;;;;;27.2;45.19336;102554.8;;;;-78
2022/07/11 11:45:07;;;;;;;;;;;;;;;27.33;44.82324;102556.7;;;;-79
2022/07/11 11:55:20;;;;;;;;;;;;;;;27.92;45.32324;102558.9;;;;-79
2022/07/11 11:59:37;;;;;;;;;;;;;;;28.75;44.64844;102544.2;;;;-78
2022/07/11 12:02:39;;;;;;;;;;;;;;;28.78;45.50293;102547.3;;;;-79
2022/07/11 12:03:59;;;;;;;1.3;0.5;;;;;;;;;;;;;-80
2022/07/11 12:07:56;;;;;;;;;;;;;;;29.27;44.54785;102546.6;;;;-80
2022/07/11 12:13:58;;;;;;;;;;;;;;;29.96;43.13184;102544.4;;;;-79
2022/07/11 12:18:56;;;;;;;;;;;;;;;29.92;42.63672;102541;;;;-79
2022/07/11 12:24:20;;;;;;;;;;;;;;;30.47;44.1748;102548.6;;;;-79
2022/07/11 12:27:21;;;;;;;;;;;;;;;30.07;44.88379;102541.5;;;;-81
2022/07/11 12:32:21;;;;;;;;;;;;;;;30.22;42.94629;102541.9;;;;-80
2022/07/11 12:34:09;;;;;;;0.7;0.4;;;;;;;;;;;;;-79
2022/07/11 12:42:40;;;;;;;;;;;;;;;30.54;43.64355;102539.6;;;;-80
2022/07/11 12:48:25;;;;;;;;;;;;;;;31.02;41.56934;102530.8;;;;-77
2022/07/11 12:51:04;;;;;;;;;;;;;;;30.89;41.36914;102523.9;;;;-73
2022/07/11 12:56:04;;;;;;;;;;;;;;;31.18;42.28711;102518.8;;;;-74
2022/07/11 13:01:04;;;;;;;;;;;;;;;31.29;42.63672;102516.5;;;;-73
2022/07/11 13:03:49;;;;;;;0.6;0.4;;;;;;;;;;;;;-74
2022/07/11 13:06:04;;;;;;;;;;;;;;;31.3;43.0127;102517.2;;;;-78
2022/07/11 13:11:04;;;;;;;;;;;;;;;31.33;43.04004;102516.6;;;;-77
2022/07/11 13:16:05;;;;;;;;;;;;;;;31.38;42.35254;102511.8;;;;-78
2022/07/11 13:21:04;;;;;;;;;;;;;;;31.3;41.95703;102513.5;;;;-77
2022/07/11 13:26:04;;;;;;;;;;;;;;;31.14;41.87207;102511.2;;;;-78
2022/07/11 13:31:06;;;;;;;;;;;;;;;30.95;41.93652;102507;;;;-77
2022/07/11 13:33:56;;;;;;;0.8;0.5;;;;;;;;;;;;;-78
2022/07/11 13:36:03;;;;;;;;;;;;;;;30.89;41.65137;102503.8;;;;-77
2022/07/11 13:41:04;;;;;;;;;;;;;;;31.11;41.4248;102506.5;;;;-78
2022/07/11 13:46:03;;;;;;;;;;;;;;;31.46;39.97754;102512.6;;;;-77
2022/07/11 13:51:03;;;;;;;;;;;;;;;31.88;40.21387;102513.2;;;;-77
2022/07/11 13:56:03;;;;;;;;;;;;;;;32.22;38.45605;102515.2;;;;-78
2022/07/11 14:01:04;;;;;;;;;;;;;;;32.49;38.76074;102513.2;;;;-78
2022/07/11 14:03:59;;;;;;;0.9;0.4;;;;;;;;;;;;;-79
2022/07/11 14:06:04;;;;;;;;;;;;;;;32.86;38.08594;102511.8;;;;-79
2022/07/11 14:11:03;;;;;;;;;;;;;;;33.22;37.31445;102519.5;;;;-76
2022/07/11 14:16:06;;;;;;;;;;;;;;;33.53;37.46875;102517.7;;;;-78
2022/07/11 14:21:03;;;;;;;;;;;;;;;33.66;36.58203;102514.9;;;;-78
2022/07/11 14:26:06;;;;;;;;;;;;;;;33.5;38.44629;102514;;;;-78
2022/07/11 14:31:03;;;;;;;;;;;;;;;33.49;37.25391;102509.6;;;;-77
2022/07/11 14:34:05;;;;;;;0.8;0.4;;;;;;;;;;;;;-72
2022/07/11 14:36:06;;;;;;;;;;;;;;;33.57;36.49316;102505.2;;;;-74
2022/07/11 14:41:04;;;;;;;;;;;;;;;33.8;36.33398;102495.6;;;;-74
2022/07/11 14:46:03;;;;;;;;;;;;;;;34.08;35.5293;102497;;;;-73
2022/07/11 14:51:04;;;;;;;;;;;;;;;34.17;37.88867;102498;;;;-72
2022/07/11 14:56:03;;;;;;;;;;;;;;;33.99;37.9209;102492.4;;;;-72
2022/07/11 15:01:03;;;;;;;;;;;;;;;33.62;37.64258;102491;;;;-72
2022/07/11 15:04:09;;;;;;;1.3;0.5;;;;;;;;;;;;;-73
2022/07/11 15:06:04;;;;;;;;;;;;;;;33.16;37.8877;102496.7;;;;-72
2022/07/11 15:16:04;;;;;;;;;;;;;;;32.25;39.24707;102507.9;;;;-72
2022/07/11 15:21:03;;;;;;;;;;;;;;;31.89;39.69824;102509.8;;;;-72
2022/07/11 15:26:04;;;;;;;;;;;;;;;31.65;40.12305;102513.4;;;;-78
2022/07/11 15:31:05;;;;;;;;;;;;;;;31.46;39.63672;102509.4;;;;-77
2022/07/11 15:34:15;;;;;;;0.9;0.5;;;;;;;;;;;;;-78
2022/07/11 15:36:03;;;;;;;;;;;;;;;31.32;40.17676;102506.9;;;;-77
2022/07/11 15:41:03;;;;;;;;;;;;;;;31.19;40.17676;102497.7;;;;-78
2022/07/11 15:46:04;;;;;;;;;;;;;;;31.06;40.25879;102490.1;;;;-78
2022/07/11 15:51:04;;;;;;;;;;;;;;;30.95;39.96777;102490.6;;;;-76
2022/07/11 15:56:04;;;;;;;;;;;;;;;30.89;40.19727;102491.7;;;;-77
2022/07/11 16:01:04;;;;;;;;;;;;;;;30.8;40.16602;102493.2;;;;-77
2022/07/11 16:04:19;;;;;;;1.2;0.6;;;;;;;;;;;;;-78
2022/07/11 16:06:04;;;;;;;;;;;;;;;30.7;40.09766;102488.6;;;;-77
2022/07/11 16:11:03;;;;;;;;;;;;;;;30.59;40.08789;102488.3;;;;-77
2022/07/11 16:16:03;;;;;;;;;;;;;;;30.5;40.31543;102490.1;;;;-77
2022/07/11 16:21:04;;;;;;;;;;;;;;;30.39;40.32813;102497.5;;;;-78
2022/07/11 16:26:04;;;;;;;;;;;;;;;30.24;40.39746;102493.1;;;;-76
2022/07/11 16:31:03;;;;;;;;;;;;;;;30.09;40.44238;102490.2;;;;-75
2022/07/11 16:34:24;;;;;;;0.9;0.6;;;;;;;;;;;;;-76
2022/07/11 16:36:03;;;;;;;;;;;;;;;29.91;40.70703;102490.9;;;;-78
2022/07/11 16:46:03;;;;;;;;;;;;;;;29.62;41.27734;102490.6;;;;-76
2022/07/11 16:51:04;;;;;;;;;;;;;;;29.49;41.17285;102493.3;;;;-74
2022/07/11 16:56:04;;;;;;;;;;;;;;;29.32;41.23828;102492.9;;;;-74
2022/07/11 17:01:03;;;;;;;;;;;;;;;29.14;41.61914;102492.8;;;;-73
2022/07/11 17:04:28;;;;;;;1.3;0.6;;;;;;;;;;;;;-74
2022/07/11 17:06:03;;;;;;;;;;;;;;;28.99;41.83887;102488.2;;;;-73
2022/07/11 17:11:05;;;;;;;;;;;;;;;28.86;42.07227;102485.2;;;;-78
2022/07/11 17:16:04;;;;;;;;;;;;;;;28.73;42.22363;102490.2;;;;-79
2022/07/11 17:21:04;;;;;;;;;;;;;;;28.57;42.44043;102495.9;;;;-76
2022/07/11 17:26:03;;;;;;;;;;;;;;;28.38;42.66699;102496.3;;;;-77
2022/07/11 17:31:03;;;;;;;;;;;;;;;28.2;42.95313;102494.3;;;;-77
2022/07/11 17:34:32;;;;;;;1.4;0.8;;;;;;;;;;;;;-78
2022/07/11 17:36:03;;;;;;;;;;;;;;;27.97;43.15332;102485.8;;;;-78
2022/07/11 17:41:03;;;;;;;;;;;;;;;27.73;43.35059;102486.8;;;;-76
2022/07/11 17:46:05;;;;;;;;;;;;;;;27.52;43.54004;102482.1;;;;-76
2022/07/11 17:51:05;;;;;;;;;;;;;;;27.26;43.71191;102485.1;;;;-78
2022/07/11 17:56:04;;;;;;;;;;;;;;;26.99;43.87207;102490.8;;;;-78
2022/07/11 18:01:05;;;;;;;;;;;;;;;26.74;43.89355;102486.1;;;;-77
2022/07/11 18:04:37;;;;;;;1.8;0.9;;;;;;;;;;;;;-78
2022/07/11 18:06:05;;;;;;;;;;;;;;;26.51;43.89551;102486.9;;;;-78
2022/07/11 18:11:06;;;;;;;;;;;;;;;26.28;43.97754;102490.9;;;;-77
2022/07/11 18:16:03;;;;;;;;;;;;;;;26.06;44.09375;102487.2;;;;-78
2022/07/11 18:21:04;;;;;;;;;;;;;;;25.85;44.375;102490.2;;;;-75
2022/07/11 18:26:03;;;;;;;;;;;;;;;25.66;44.37988;102496.3;;;;-76
2022/07/11 18:31:03;;;;;;;;;;;;;;;25.47;44.74219;102496;;;;-76
2022/07/11 18:34:42;;;;;;;1.1;0.8;;;;;;;;;;;;;-77
2022/07/11 18:36:04;;;;;;;;;;;;;;;25.26;44.97656;102497;;;;-77
2022/07/11 18:41:15;;;;;;;;;;;;;;;25;45.50586;102497.9;;;;-76
2022/07/11 18:46:03;;;;;;;;;;;;;;;24.8;45.64551;102500.6;;;;-76
2022/07/11 18:51:04;;;;;;;;;;;;;;;24.58;46.1084;102496.4;;;;-74
2022/07/11 18:56:03;;;;;;;;;;;;;;;24.4;46.14844;102498.7;;;;-78
2022/07/11 19:01:03;;;;;;;;;;;;;;;24.22;46.38281;102503.2;;;;-76
2022/07/11 19:04:45;;;;;;;1.5;1;;;;;;;;;;;;;-76
2022/07/11 19:06:03;;;;;;;;;;;;;;;24.01;46.8457;102496.7;;;;-75
2022/07/11 19:11:04;;;;;;;;;;;;;;;23.81;47.16992;102501.5;;;;-76
2022/07/11 19:16:04;;;;;;;;;;;;;;;23.62;47.44824;102500.2;;;;-75
2022/07/11 19:21:03;;;;;;;;;;;;;;;23.43;47.70508;102494;;;;-73
2022/07/11 19:26:03;;;;;;;;;;;;;;;23.23;48.02832;102495.3;;;;-75
2022/07/11 19:31:04;;;;;;;;;;;;;;;23.01;48.5;102495.8;;;;-75
2022/07/11 19:34:47;;;;;;;1.6;0.9;;;;;;;;;;;;;-72
2022/07/11 19:36:06;;;;;;;;;;;;;;;22.8;48.82129;102495.6;;;;-73
2022/07/11 19:41:03;;;;;;;;;;;;;;;22.59;49.42871;102509.3;;;;-71
2022/07/11 19:46:03;;;;;;;;;;;;;;;22.37;49.68164;102508.8;;;;-73
2022/07/11 19:51:04;;;;;;;;;;;;;;;22.19;49.82129;102510.8;;;;-77
2022/07/11 20:01:04;;;;;;;;;;;;;;;21.86;50.25391;102529.1;;;;-77
2022/07/11 20:04:50;;;;;;;1.7;1;;;;;;;;;;;;;-76
2022/07/11 20:06:03;;;;;;;;;;;;;;;21.69;50.38477;102530.9;;;;-77
2022/07/11 20:11:03;;;;;;;;;;;;;;;21.53;50.70898;102538;;;;-76
2022/07/11 20:16:03;;;;;;;;;;;;;;;21.38;51.03613;102541.1;;;;-76
2022/07/11 20:40:31;;;;;;;;;;;;;;;20.69;52.39551;102532;;;;-79
2022/07/11 20:50:33;;;;;;;;;;;;;;;20.44;52.75488;102543.1;;;;-80
2022/07/11 20:52:04;;;;;;;;;;;;;;;20.71;52.55762;102532.3;;;;-81
2022/07/11 20:55:03;;;;;;;;;;;;;;;20.33;52.96875;102540.8;;;;-80
2022/07/11 21:00:00;;;;;;;;;;;;;;;20.2;53.03418;102536.6;;;;-79
2022/07/11 21:04:59;;;;;;;2;1.1;;;;;;;;;;;;;-80
2022/07/11 21:05:15;;;;;;;;;;;;;;;20.08;53.38379;102533.1;;;;-80
2022/07/11 21:10:00;;;;;;;;;;;;;;;19.99;53.54492;102536.8;;;;-79
2022/07/11 21:15:00;;;;;;;;;;;;;;;19.88;53.72461;102540.2;;;;-79
2022/07/11 21:19:58;;;;;;;;;;;;;;;19.8;53.79492;102540.9;;;;-78
2022/07/11 21:25:01;;;;;;;;;;;;;;;19.7;53.97656;102538.6;;;;-80
2022/07/11 21:29:59;;;;;;;;;;;;;;;19.6;53.97559;102545.9;;;;-79
2022/07/11 21:35:17;;;;;;;;;;;;;;;;;;;;;
2022/07/11 21:36:14;;;;;;;;;;;;;;;19.84;53.83301;102552.8;;;;-78
2022/07/11 21:44:02;;;;;;;;;;;;;;;19.32;54.38477;102549.7;;;;-79
2022/07/11 21:49:01;;;;;;;;;;;;;;;19.19;54.62012;102548.1;;;;-80
2022/07/11 21:53:49;;;;;;;;;;;;;;;19.1;54.9834;102554.9;;;;-82
2022/07/11 22:04:19;;;;;;;;;;;;;;;18.89;55.26465;102558.6;;;;-83
2022/07/11 22:05:26;;;;;;;;;;;;;;;19.18;54.94727;102545.5;;;;-81
2022/07/11 22:10:48;;;;;;;;;;;;;;;18.77;55.59082;102552.3;;;;-81
2022/07/11 22:20:15;;;;;;;;;;;;;;;18.56;55.7793;102539.3;;;;-82
2022/07/11 22:25:25;;;;;;;;;;;;;;;18.46;55.7666;102533.4;;;;-83
2022/07/11 22:30:31;;;;;;;;;;;;;;;18.32;55.83984;102523.3;;;;-81
2022/07/11 22:35:21;;;;;;;2.3;1.4;;;;;;;;;;;;;-82
2022/07/11 22:40:48;;;;;;;;;;;;;;;18.37;55.53906;102514.1;;;;-81
2022/07/11 22:44:57;;;;;;;;;;;;;;;18.03;56.13184;102514.5;;;;-83
2022/07/11 22:49:59;;;;;;;;;;;;;;;17.93;56.06348;102512.1;;;;-83
2022/07/11 22:55:00;;;;;;;;;;;;;;;17.86;56.04297;102508;;;;-83
2022/07/11 22:59:59;;;;;;;;;;;;;;;17.79;56.19434;102501.7;;;;-82
2022/07/11 23:04:58;;;;;;;;;;;;;;;17.76;56.22168;102492.6;;;;-80
2022/07/11 23:05:17;;;;;;;2.1;1.3;;;;;;;;;;;;;-80
2022/07/11 23:10:08;;;;;;;;;;;;;;;17.71;56.375;102492.5;;;;-83
2022/07/11 23:14:59;;;;;;;;;;;;;;;17.65;56.24316;102494.5;;;;-84
2022/07/11 23:20:00;;;;;;;;;;;;;;;17.61;56.3623;102500.1;;;;-82
2022/07/11 23:24:58;;;;;;;;;;;;;;;17.56;56.32227;102503.6;;;;-82
2022/07/11 23:29:59;;;;;;;;;;;;;;;17.54;56.44434;102496.6;;;;-83
2022/07/11 23:35:03;;;;;;;;;;;;;;;17.51;56.37207;102489.2;;;;-82
2022/07/11 23:35:15;;;;;;;2.5;1.4;;;;;;;;;;;;;-82
2022/07/11 23:40:04;;;;;;;;;;;;;;;17.45;56.38672;102482.9;;;;-81
2022/07/11 23:45:01;;;;;;;;;;;;;;;17.39;56.8877;102486.8;;;;-81
2022/07/11 23:50:11;;;;;;;;;;;;;;;17.33;56.98438;102494;;;;-81
